sensor_id;sensor_type;location;lat;lon;timestamp;P1;durP1;ratioP1;P2;durP2;ratioP2
71253;SDS011;59019;47.638;18.966;2023-03-03T00:00:41;43.65;;;16.55;;
71253;SDS011;59019;47.638;18.966;2023-03-03T00:03:08;48.67;;;18.00;;
71253;SDS011;59019;47.638;18.966;2023-03-03T00:05:37;45.90;;;17.27;;
71253;SDS011;59019;47.638;18.966;2023-03-03T00:08:03;46.40;;;16.85;;
71253;SDS011;59019;47.638;18.966;2023-03-03T00:10:29;46.58;;;17.27;;
71253;SDS011;59019;47.638;18.966;2023-03-03T00:12:55;42.73;;;15.70;;
71253;SDS011;59019;47.638;18.966;2023-03-03T00:15:24;46.00;;;17.58;;
71253;SDS011;59019;47.638;18.966;2023-03-03T00:17:51;63.63;;;23.08;;
71253;SDS011;59019;47.638;18.966;2023-03-03T00:23:12;41.97;;;15.25;;
71253;SDS011;59019;47.638;18.966;2023-03-03T00:25:50;42.88;;;15.43;;
71253;SDS011;59019;47.638;18.966;2023-03-03T00:28:29;36.25;;;14.90;;
71253;SDS011;59019;47.638;18.966;2023-03-03T00:30:57;37.65;;;15.05;;
71253;SDS011;59019;47.638;18.966;2023-03-03T00:35:52;43.88;;;17.20;;
71253;SDS011;59019;47.638;18.966;2023-03-03T00:38:20;43.33;;;17.17;;
71253;SDS011;59019;47.638;18.966;2023-03-03T00:40:46;45.13;;;16.92;;
71253;SDS011;59019;47.638;18.966;2023-03-03T00:43:25;38.67;;;14.13;;
71253;SDS011;59019;47.638;18.966;2023-03-03T00:45:58;37.10;;;14.40;;
71253;SDS011;59019;47.638;18.966;2023-03-03T00:50:53;42.30;;;15.65;;
71253;SDS011;59019;47.638;18.966;2023-03-03T00:53:24;39.60;;;15.27;;
71253;SDS011;59019;47.638;18.966;2023-03-03T00:55:55;39.88;;;15.73;;
71253;SDS011;59019;47.638;18.966;2023-03-03T00:58:21;39.38;;;14.93;;
71253;SDS011;59019;47.638;18.966;2023-03-03T01:00:48;44.90;;;17.10;;
71253;SDS011;59019;47.638;18.966;2023-03-03T01:03:16;47.55;;;17.08;;
71253;SDS011;59019;47.638;18.966;2023-03-03T01:05:43;53.60;;;18.63;;
71253;SDS011;59019;47.638;18.966;2023-03-03T01:08:09;55.25;;;21.23;;
71253;SDS011;59019;47.638;18.966;2023-03-03T01:10:36;56.17;;;20.60;;
71253;SDS011;59019;47.638;18.966;2023-03-03T01:13:16;68.57;;;26.02;;
71253;SDS011;59019;47.638;18.966;2023-03-03T01:15:48;54.47;;;20.87;;
71253;SDS011;59019;47.638;18.966;2023-03-03T01:18:14;38.47;;;14.80;;
71253;SDS011;59019;47.638;18.966;2023-03-03T01:20:40;35.40;;;13.60;;
71253;SDS011;59019;47.638;18.966;2023-03-03T01:23:06;33.25;;;12.50;;
71253;SDS011;59019;47.638;18.966;2023-03-03T01:25:32;42.30;;;15.43;;
71253;SDS011;59019;47.638;18.966;2023-03-03T01:27:58;50.45;;;19.45;;
71253;SDS011;59019;47.638;18.966;2023-03-03T01:30:24;46.15;;;18.48;;
71253;SDS011;59019;47.638;18.966;2023-03-03T01:32:50;40.27;;;14.13;;
71253;SDS011;59019;47.638;18.966;2023-03-03T01:35:16;35.30;;;12.77;;
71253;SDS011;59019;47.638;18.966;2023-03-03T01:37:42;30.10;;;11.70;;
71253;SDS011;59019;47.638;18.966;2023-03-03T01:40:12;26.25;;;10.52;;
71253;SDS011;59019;47.638;18.966;2023-03-03T01:42:43;21.65;;;8.82;;
71253;SDS011;59019;47.638;18.966;2023-03-03T01:47:45;28.00;;;10.70;;
71253;SDS011;59019;47.638;18.966;2023-03-03T01:50:16;29.20;;;10.55;;
71253;SDS011;59019;47.638;18.966;2023-03-03T01:52:51;28.07;;;10.63;;
71253;SDS011;59019;47.638;18.966;2023-03-03T01:55:19;32.92;;;10.57;;
71253;SDS011;59019;47.638;18.966;2023-03-03T01:57:51;30.17;;;11.02;;
71253;SDS011;59019;47.638;18.966;2023-03-03T02:00:25;23.65;;;9.88;;
71253;SDS011;59019;47.638;18.966;2023-03-03T02:02:51;30.95;;;11.43;;
71253;SDS011;59019;47.638;18.966;2023-03-03T02:05:17;36.10;;;14.37;;
71253;SDS011;59019;47.638;18.966;2023-03-03T02:07:43;33.80;;;13.40;;
71253;SDS011;59019;47.638;18.966;2023-03-03T02:10:10;37.28;;;15.05;;
71253;SDS011;59019;47.638;18.966;2023-03-03T02:12:45;35.83;;;15.05;;
71253;SDS011;59019;47.638;18.966;2023-03-03T02:15:33;29.03;;;12.40;;
71253;SDS011;59019;47.638;18.966;2023-03-03T02:18:03;29.23;;;12.18;;
71253;SDS011;59019;47.638;18.966;2023-03-03T02:20:45;26.65;;;10.88;;
71253;SDS011;59019;47.638;18.966;2023-03-03T02:28:26;28.90;;;11.70;;
71253;SDS011;59019;47.638;18.966;2023-03-03T02:30:53;27.33;;;11.20;;
71253;SDS011;59019;47.638;18.966;2023-03-03T02:33:19;26.77;;;11.17;;
71253;SDS011;59019;47.638;18.966;2023-03-03T02:35:45;22.80;;;9.68;;
71253;SDS011;59019;47.638;18.966;2023-03-03T02:38:21;21.47;;;8.80;;
71253;SDS011;59019;47.638;18.966;2023-03-03T02:41:20;20.17;;;8.80;;
71253;SDS011;59019;47.638;18.966;2023-03-03T02:46:24;24.00;;;9.45;;
71253;SDS011;59019;47.638;18.966;2023-03-03T02:48:51;23.53;;;9.00;;
71253;SDS011;59019;47.638;18.966;2023-03-03T02:51:16;19.83;;;7.93;;
71253;SDS011;59019;47.638;18.966;2023-03-03T02:53:42;19.20;;;8.67;;
71253;SDS011;59019;47.638;18.966;2023-03-03T02:56:07;21.95;;;8.88;;
71253;SDS011;59019;47.638;18.966;2023-03-03T02:58:34;24.73;;;9.00;;
71253;SDS011;59019;47.638;18.966;2023-03-03T03:01:00;19.65;;;7.65;;
71253;SDS011;59019;47.638;18.966;2023-03-03T03:03:26;20.08;;;7.88;;
71253;SDS011;59019;47.638;18.966;2023-03-03T03:05:52;22.03;;;8.03;;
71253;SDS011;59019;47.638;18.966;2023-03-03T03:08:17;20.73;;;7.78;;
71253;SDS011;59019;47.638;18.966;2023-03-03T03:10:43;19.20;;;7.50;;
71253;SDS011;59019;47.638;18.966;2023-03-03T03:13:08;17.60;;;6.97;;
71253;SDS011;59019;47.638;18.966;2023-03-03T03:15:34;19.42;;;6.93;;
71253;SDS011;59019;47.638;18.966;2023-03-03T03:18:00;26.47;;;7.90;;
71253;SDS011;59019;47.638;18.966;2023-03-03T03:20:25;19.45;;;7.72;;
71253;SDS011;59019;47.638;18.966;2023-03-03T03:22:51;25.33;;;8.73;;
71253;SDS011;59019;47.638;18.966;2023-03-03T03:25:17;24.53;;;9.63;;
71253;SDS011;59019;47.638;18.966;2023-03-03T03:27:42;27.85;;;9.48;;
71253;SDS011;59019;47.638;18.966;2023-03-03T03:30:08;20.87;;;7.90;;
71253;SDS011;59019;47.638;18.966;2023-03-03T03:32:34;16.90;;;6.90;;
71253;SDS011;59019;47.638;18.966;2023-03-03T03:35:00;16.40;;;6.33;;
71253;SDS011;59019;47.638;18.966;2023-03-03T03:37:25;17.13;;;6.72;;
71253;SDS011;59019;47.638;18.966;2023-03-03T03:39:51;18.13;;;6.33;;
71253;SDS011;59019;47.638;18.966;2023-03-03T03:42:17;16.42;;;6.50;;
71253;SDS011;59019;47.638;18.966;2023-03-03T03:44:43;16.83;;;6.90;;
71253;SDS011;59019;47.638;18.966;2023-03-03T03:47:08;15.95;;;6.18;;
71253;SDS011;59019;47.638;18.966;2023-03-03T03:49:34;16.13;;;6.13;;
71253;SDS011;59019;47.638;18.966;2023-03-03T03:52:00;17.87;;;6.20;;
71253;SDS011;59019;47.638;18.966;2023-03-03T03:54:26;15.77;;;6.13;;
71253;SDS011;59019;47.638;18.966;2023-03-03T03:56:51;15.32;;;5.55;;
71253;SDS011;59019;47.638;18.966;2023-03-03T03:59:18;14.55;;;5.22;;
71253;SDS011;59019;47.638;18.966;2023-03-03T04:01:44;14.48;;;5.55;;
71253;SDS011;59019;47.638;18.966;2023-03-03T04:04:10;16.57;;;6.30;;
71253;SDS011;59019;47.638;18.966;2023-03-03T04:06:36;16.95;;;7.00;;
71253;SDS011;59019;47.638;18.966;2023-03-03T04:09:01;18.07;;;7.13;;
71253;SDS011;59019;47.638;18.966;2023-03-03T04:11:27;18.58;;;6.88;;
71253;SDS011;59019;47.638;18.966;2023-03-03T04:13:53;18.47;;;6.90;;
71253;SDS011;59019;47.638;18.966;2023-03-03T04:16:18;16.15;;;6.25;;
71253;SDS011;59019;47.638;18.966;2023-03-03T04:18:45;18.33;;;6.40;;
71253;SDS011;59019;47.638;18.966;2023-03-03T04:21:11;15.70;;;6.55;;
71253;SDS011;59019;47.638;18.966;2023-03-03T04:23:38;15.35;;;5.85;;
71253;SDS011;59019;47.638;18.966;2023-03-03T04:26:04;18.80;;;6.10;;
71253;SDS011;59019;47.638;18.966;2023-03-03T04:28:31;15.73;;;5.67;;
71253;SDS011;59019;47.638;18.966;2023-03-03T04:30:57;17.58;;;5.75;;
71253;SDS011;59019;47.638;18.966;2023-03-03T04:33:23;16.55;;;6.00;;
71253;SDS011;59019;47.638;18.966;2023-03-03T04:35:48;16.83;;;5.73;;
71253;SDS011;59019;47.638;18.966;2023-03-03T04:38:15;14.77;;;5.75;;
71253;SDS011;59019;47.638;18.966;2023-03-03T04:40:41;15.70;;;5.68;;
71253;SDS011;59019;47.638;18.966;2023-03-03T04:43:07;13.40;;;5.10;;
71253;SDS011;59019;47.638;18.966;2023-03-03T04:45:33;12.57;;;5.03;;
71253;SDS011;59019;47.638;18.966;2023-03-03T04:47:59;14.88;;;6.20;;
71253;SDS011;59019;47.638;18.966;2023-03-03T04:50:24;15.37;;;6.67;;
71253;SDS011;59019;47.638;18.966;2023-03-03T04:52:50;18.40;;;7.53;;
71253;SDS011;59019;47.638;18.966;2023-03-03T04:55:15;23.27;;;8.47;;
71253;SDS011;59019;47.638;18.966;2023-03-03T04:57:41;21.08;;;8.98;;
71253;SDS011;59019;47.638;18.966;2023-03-03T05:00:08;19.73;;;7.65;;
71253;SDS011;59019;47.638;18.966;2023-03-03T05:02:37;18.97;;;8.57;;
71253;SDS011;59019;47.638;18.966;2023-03-03T05:05:03;21.05;;;8.30;;
71253;SDS011;59019;47.638;18.966;2023-03-03T05:07:30;22.13;;;8.10;;
71253;SDS011;59019;47.638;18.966;2023-03-03T05:09:55;21.53;;;7.20;;
71253;SDS011;59019;47.638;18.966;2023-03-03T05:12:21;18.42;;;7.10;;
71253;SDS011;59019;47.638;18.966;2023-03-03T05:14:46;18.13;;;6.82;;
71253;SDS011;59019;47.638;18.966;2023-03-03T05:17:12;20.03;;;6.70;;
71253;SDS011;59019;47.638;18.966;2023-03-03T05:19:38;25.33;;;8.85;;
71253;SDS011;59019;47.638;18.966;2023-03-03T05:22:04;35.28;;;11.48;;
71253;SDS011;59019;47.638;18.966;2023-03-03T05:24:30;36.30;;;11.20;;
71253;SDS011;59019;47.638;18.966;2023-03-03T05:26:55;39.60;;;10.53;;
71253;SDS011;59019;47.638;18.966;2023-03-03T05:29:21;30.13;;;9.70;;
71253;SDS011;59019;47.638;18.966;2023-03-03T05:31:46;18.33;;;6.30;;
71253;SDS011;59019;47.638;18.966;2023-03-03T05:34:12;17.60;;;6.53;;
71253;SDS011;59019;47.638;18.966;2023-03-03T05:36:37;21.23;;;6.77;;
71253;SDS011;59019;47.638;18.966;2023-03-03T05:39:03;17.45;;;5.88;;
71253;SDS011;59019;47.638;18.966;2023-03-03T05:41:28;16.07;;;6.03;;
71253;SDS011;59019;47.638;18.966;2023-03-03T05:43:54;17.33;;;5.78;;
71253;SDS011;59019;47.638;18.966;2023-03-03T05:46:20;19.60;;;5.67;;
71253;SDS011;59019;47.638;18.966;2023-03-03T05:48:45;15.80;;;5.93;;
71253;SDS011;59019;47.638;18.966;2023-03-03T05:51:11;19.65;;;6.57;;
71253;SDS011;59019;47.638;18.966;2023-03-03T05:53:36;18.77;;;6.83;;
71253;SDS011;59019;47.638;18.966;2023-03-03T05:56:02;23.63;;;7.97;;
71253;SDS011;59019;47.638;18.966;2023-03-03T05:58:28;22.88;;;8.10;;
71253;SDS011;59019;47.638;18.966;2023-03-03T06:00:54;22.80;;;8.38;;
71253;SDS011;59019;47.638;18.966;2023-03-03T06:03:20;31.23;;;9.93;;
71253;SDS011;59019;47.638;18.966;2023-03-03T06:05:46;34.28;;;11.75;;
71253;SDS011;59019;47.638;18.966;2023-03-03T06:08:11;38.67;;;12.77;;
71253;SDS011;59019;47.638;18.966;2023-03-03T06:10:37;32.95;;;11.23;;
71253;SDS011;59019;47.638;18.966;2023-03-03T06:13:02;33.50;;;11.13;;
71253;SDS011;59019;47.638;18.966;2023-03-03T06:15:28;32.67;;;10.20;;
71253;SDS011;59019;47.638;18.966;2023-03-03T06:17:55;28.73;;;10.23;;
71253;SDS011;59019;47.638;18.966;2023-03-03T06:20:20;26.70;;;10.15;;
71253;SDS011;59019;47.638;18.966;2023-03-03T06:22:46;27.67;;;9.35;;
71253;SDS011;59019;47.638;18.966;2023-03-03T06:25:11;28.83;;;9.60;;
71253;SDS011;59019;47.638;18.966;2023-03-03T06:27:37;26.67;;;9.90;;
71253;SDS011;59019;47.638;18.966;2023-03-03T06:30:04;26.30;;;9.33;;
71253;SDS011;59019;47.638;18.966;2023-03-03T06:32:31;25.52;;;9.13;;
71253;SDS011;59019;47.638;18.966;2023-03-03T06:34:56;24.00;;;8.70;;
71253;SDS011;59019;47.638;18.966;2023-03-03T06:37:22;19.45;;;8.00;;
71253;SDS011;59019;47.638;18.966;2023-03-03T06:39:49;23.63;;;8.40;;
71253;SDS011;59019;47.638;18.966;2023-03-03T06:42:16;19.52;;;7.68;;
71253;SDS011;59019;47.638;18.966;2023-03-03T06:44:44;21.40;;;8.18;;
71253;SDS011;59019;47.638;18.966;2023-03-03T06:47:09;20.47;;;7.50;;
71253;SDS011;59019;47.638;18.966;2023-03-03T06:49:35;22.50;;;7.73;;
71253;SDS011;59019;47.638;18.966;2023-03-03T06:52:04;20.43;;;8.13;;
71253;SDS011;59019;47.638;18.966;2023-03-03T06:54:36;21.83;;;8.40;;
71253;SDS011;59019;47.638;18.966;2023-03-03T06:57:03;25.35;;;10.55;;
71253;SDS011;59019;47.638;18.966;2023-03-03T06:59:40;22.47;;;8.83;;
71253;SDS011;59019;47.638;18.966;2023-03-03T07:02:11;23.88;;;8.98;;
71253;SDS011;59019;47.638;18.966;2023-03-03T07:04:40;22.73;;;8.90;;
71253;SDS011;59019;47.638;18.966;2023-03-03T07:07:25;19.85;;;8.27;;
71253;SDS011;59019;47.638;18.966;2023-03-03T07:09:51;18.10;;;7.68;;
71253;SDS011;59019;47.638;18.966;2023-03-03T07:12:20;17.90;;;7.87;;
71253;SDS011;59019;47.638;18.966;2023-03-03T07:14:47;19.80;;;8.05;;
71253;SDS011;59019;47.638;18.966;2023-03-03T07:17:20;20.88;;;8.50;;
71253;SDS011;59019;47.638;18.966;2023-03-03T07:19:48;22.38;;;8.55;;
71253;SDS011;59019;47.638;18.966;2023-03-03T07:22:15;18.20;;;8.77;;
71253;SDS011;59019;47.638;18.966;2023-03-03T07:24:46;22.57;;;8.40;;
71253;SDS011;59019;47.638;18.966;2023-03-03T07:29:44;18.65;;;8.32;;
71253;SDS011;59019;47.638;18.966;2023-03-03T07:32:18;21.13;;;8.43;;
71253;SDS011;59019;47.638;18.966;2023-03-03T07:34:50;19.85;;;7.65;;
71253;SDS011;59019;47.638;18.966;2023-03-03T07:37:34;17.55;;;7.32;;
71253;SDS011;59019;47.638;18.966;2023-03-03T07:40:05;17.48;;;7.47;;
71253;SDS011;59019;47.638;18.966;2023-03-03T07:42:59;16.00;;;7.35;;
71253;SDS011;59019;47.638;18.966;2023-03-03T07:45:46;17.00;;;7.07;;
71253;SDS011;59019;47.638;18.966;2023-03-03T07:50:37;13.67;;;5.60;;
71253;SDS011;59019;47.638;18.966;2023-03-03T07:53:04;12.50;;;5.15;;
71253;SDS011;59019;47.638;18.966;2023-03-03T07:55:42;10.77;;;4.53;;
71253;SDS011;59019;47.638;18.966;2023-03-03T08:03:18;14.32;;;5.18;;
71253;SDS011;59019;47.638;18.966;2023-03-03T08:05:48;12.30;;;4.70;;
71253;SDS011;59019;47.638;18.966;2023-03-03T08:08:18;13.37;;;4.93;;
71253;SDS011;59019;47.638;18.966;2023-03-03T08:10:54;12.55;;;5.18;;
71253;SDS011;59019;47.638;18.966;2023-03-03T08:13:22;12.13;;;4.68;;
71253;SDS011;59019;47.638;18.966;2023-03-03T08:16:01;9.77;;;4.82;;
71253;SDS011;59019;47.638;18.966;2023-03-03T08:18:39;9.73;;;4.53;;
71253;SDS011;59019;47.638;18.966;2023-03-03T08:21:08;11.77;;;4.70;;
71253;SDS011;59019;47.638;18.966;2023-03-03T08:23:37;10.10;;;4.63;;
71253;SDS011;59019;47.638;18.966;2023-03-03T08:26:04;10.65;;;5.25;;
71253;SDS011;59019;47.638;18.966;2023-03-03T08:28:30;10.65;;;4.20;;
71253;SDS011;59019;47.638;18.966;2023-03-03T08:30:57;11.27;;;4.77;;
71253;SDS011;59019;47.638;18.966;2023-03-03T08:33:22;11.98;;;5.00;;
71253;SDS011;59019;47.638;18.966;2023-03-03T08:35:48;12.87;;;4.53;;
71253;SDS011;59019;47.638;18.966;2023-03-03T08:38:15;11.40;;;4.47;;
71253;SDS011;59019;47.638;18.966;2023-03-03T08:40:42;12.52;;;5.20;;
71253;SDS011;59019;47.638;18.966;2023-03-03T08:43:08;13.10;;;5.22;;
71253;SDS011;59019;47.638;18.966;2023-03-03T08:45:34;12.13;;;5.17;;
71253;SDS011;59019;47.638;18.966;2023-03-03T08:48:00;13.32;;;5.38;;
71253;SDS011;59019;47.638;18.966;2023-03-03T08:50:27;12.32;;;5.25;;
71253;SDS011;59019;47.638;18.966;2023-03-03T08:52:56;12.70;;;5.47;;
71253;SDS011;59019;47.638;18.966;2023-03-03T08:55:22;12.03;;;5.40;;
71253;SDS011;59019;47.638;18.966;2023-03-03T08:57:47;12.02;;;5.18;;
71253;SDS011;59019;47.638;18.966;2023-03-03T09:00:14;12.90;;;5.23;;
71253;SDS011;59019;47.638;18.966;2023-03-03T09:02:41;11.05;;;4.78;;
71253;SDS011;59019;47.638;18.966;2023-03-03T09:05:07;13.10;;;5.30;;
71253;SDS011;59019;47.638;18.966;2023-03-03T09:07:33;15.00;;;5.70;;
71253;SDS011;59019;47.638;18.966;2023-03-03T09:09:59;13.27;;;4.90;;
71253;SDS011;59019;47.638;18.966;2023-03-03T09:14:58;13.27;;;4.95;;
71253;SDS011;59019;47.638;18.966;2023-03-03T09:17:31;12.82;;;4.90;;
71253;SDS011;59019;47.638;18.966;2023-03-03T09:20:01;13.13;;;5.47;;
71253;SDS011;59019;47.638;18.966;2023-03-03T09:22:41;12.13;;;5.90;;
71253;SDS011;59019;47.638;18.966;2023-03-03T09:30:56;14.43;;;5.97;;
71253;SDS011;59019;47.638;18.966;2023-03-03T09:33:45;12.70;;;5.65;;
71253;SDS011;59019;47.638;18.966;2023-03-03T09:36:32;13.47;;;5.87;;
71253;SDS011;59019;47.638;18.966;2023-03-03T09:39:04;13.48;;;6.00;;
71253;SDS011;59019;47.638;18.966;2023-03-03T09:52:47;12.40;;;4.47;;
71253;SDS011;59019;47.638;18.966;2023-03-03T10:12:23;10.65;;;4.82;;
71253;SDS011;59019;47.638;18.966;2023-03-03T10:36:16;11.52;;;5.43;;
71253;SDS011;59019;47.638;18.966;2023-03-03T10:47:07;11.98;;;4.93;;
71253;SDS011;59019;47.638;18.966;2023-03-03T11:18:00;12.87;;;6.03;;
71253;SDS011;59019;47.638;18.966;2023-03-03T11:31:37;13.17;;;5.57;;
71253;SDS011;59019;47.638;18.966;2023-03-03T11:39:41;12.23;;;5.70;;
71253;SDS011;59019;47.638;18.966;2023-03-03T11:42:18;13.90;;;6.68;;
71253;SDS011;59019;47.638;18.966;2023-03-03T11:44:48;13.83;;;7.83;;
71253;SDS011;59019;47.638;18.966;2023-03-03T11:47:20;12.02;;;6.82;;
71253;SDS011;59019;47.638;18.966;2023-03-03T11:50:10;14.35;;;7.05;;
71253;SDS011;59019;47.638;18.966;2023-03-03T11:55:37;15.70;;;7.63;;
71253;SDS011;59019;47.638;18.966;2023-03-03T12:01:15;14.10;;;6.88;;
71253;SDS011;59019;47.638;18.966;2023-03-03T12:15:46;10.80;;;6.00;;
71253;SDS011;59019;47.638;18.966;2023-03-03T12:21:19;11.52;;;5.65;;
71253;SDS011;59019;47.638;18.966;2023-03-03T12:29:40;12.77;;;6.47;;
71253;SDS011;59019;47.638;18.966;2023-03-03T12:40:20;11.87;;;6.70;;
71253;SDS011;59019;47.638;18.966;2023-03-03T12:48:20;15.73;;;7.00;;
71253;SDS011;59019;47.638;18.966;2023-03-03T12:57:12;14.45;;;8.05;;
71253;SDS011;59019;47.638;18.966;2023-03-03T13:05:28;16.00;;;8.07;;
71253;SDS011;59019;47.638;18.966;2023-03-03T13:14:20;19.80;;;9.57;;
71253;SDS011;59019;47.638;18.966;2023-03-03T13:17:08;18.08;;;9.65;;
71253;SDS011;59019;47.638;18.966;2023-03-03T13:25:08;16.85;;;9.25;;
71253;SDS011;59019;47.638;18.966;2023-03-03T13:28:02;18.85;;;9.48;;
71253;SDS011;59019;47.638;18.966;2023-03-03T13:30:36;18.45;;;9.38;;
71253;SDS011;59019;47.638;18.966;2023-03-03T13:33:16;15.65;;;8.55;;
71253;SDS011;59019;47.638;18.966;2023-03-03T13:38:39;17.00;;;9.15;;
71253;SDS011;59019;47.638;18.966;2023-03-03T13:44:10;17.38;;;9.02;;
71253;SDS011;59019;47.638;18.966;2023-03-03T14:00:30;26.52;;;11.63;;
71253;SDS011;59019;47.638;18.966;2023-03-03T14:05:47;17.85;;;8.80;;
71253;SDS011;59019;47.638;18.966;2023-03-03T14:08:41;17.70;;;8.67;;
71253;SDS011;59019;47.638;18.966;2023-03-03T14:21:42;18.85;;;9.15;;
71253;SDS011;59019;47.638;18.966;2023-03-03T14:24:18;41.30;;;16.77;;
71253;SDS011;59019;47.638;18.966;2023-03-03T14:26:49;28.33;;;13.02;;
71253;SDS011;59019;47.638;18.966;2023-03-03T14:32:19;19.33;;;9.70;;
71253;SDS011;59019;47.638;18.966;2023-03-03T14:34:46;17.75;;;9.30;;
71253;SDS011;59019;47.638;18.966;2023-03-03T14:42:53;19.43;;;9.00;;
71253;SDS011;59019;47.638;18.966;2023-03-03T14:48:22;25.40;;;11.90;;
71253;SDS011;59019;47.638;18.966;2023-03-03T14:50:50;21.00;;;9.95;;
71253;SDS011;59019;47.638;18.966;2023-03-03T14:55:42;19.53;;;9.70;;
71253;SDS011;59019;47.638;18.966;2023-03-03T14:58:23;24.42;;;10.43;;
71253;SDS011;59019;47.638;18.966;2023-03-03T15:01:04;20.23;;;10.43;;
71253;SDS011;59019;47.638;18.966;2023-03-03T15:06:39;17.92;;;9.32;;
71253;SDS011;59019;47.638;18.966;2023-03-03T15:11:54;24.63;;;10.90;;
71253;SDS011;59019;47.638;18.966;2023-03-03T15:14:25;22.77;;;9.90;;
71253;SDS011;59019;47.638;18.966;2023-03-03T15:25:14;20.52;;;9.82;;
71253;SDS011;59019;47.638;18.966;2023-03-03T15:28:17;21.20;;;10.03;;
71253;SDS011;59019;47.638;18.966;2023-03-03T15:42:21;24.10;;;11.23;;
71253;SDS011;59019;47.638;18.966;2023-03-03T15:51:28;25.15;;;12.73;;
71253;SDS011;59019;47.638;18.966;2023-03-03T15:57:51;28.03;;;12.83;;
71253;SDS011;59019;47.638;18.966;2023-03-03T16:03:02;58.65;;;26.92;;
71253;SDS011;59019;47.638;18.966;2023-03-03T16:05:52;39.53;;;19.30;;
71253;SDS011;59019;47.638;18.966;2023-03-03T16:32:52;28.92;;;13.02;;
71253;SDS011;59019;47.638;18.966;2023-03-03T16:35:32;29.33;;;13.57;;
71253;SDS011;59019;47.638;18.966;2023-03-03T16:38:16;24.80;;;13.10;;
71253;SDS011;59019;47.638;18.966;2023-03-03T16:40:59;26.23;;;12.90;;
71253;SDS011;59019;47.638;18.966;2023-03-03T16:59:46;31.23;;;14.80;;
71253;SDS011;59019;47.638;18.966;2023-03-03T17:02:37;28.30;;;12.73;;
71253;SDS011;59019;47.638;18.966;2023-03-03T17:25:21;31.27;;;14.68;;
71253;SDS011;59019;47.638;18.966;2023-03-03T17:30:42;32.08;;;13.18;;
71253;SDS011;59019;47.638;18.966;2023-03-03T17:36:02;28.92;;;12.82;;
71253;SDS011;59019;47.638;18.966;2023-03-03T17:38:37;33.20;;;13.50;;
71253;SDS011;59019;47.638;18.966;2023-03-03T17:41:29;34.63;;;14.57;;
71253;SDS011;59019;47.638;18.966;2023-03-03T18:05:17;32.30;;;14.02;;
71253;SDS011;59019;47.638;18.966;2023-03-03T18:20:59;35.60;;;16.67;;
71253;SDS011;59019;47.638;18.966;2023-03-03T18:23:44;32.13;;;14.50;;
71253;SDS011;59019;47.638;18.966;2023-03-03T18:31:47;37.70;;;16.92;;
71253;SDS011;59019;47.638;18.966;2023-03-03T18:36:54;39.83;;;17.77;;
71253;SDS011;59019;47.638;18.966;2023-03-03T18:44:36;39.60;;;18.60;;
71253;SDS011;59019;47.638;18.966;2023-03-03T18:47:02;43.13;;;19.70;;
71253;SDS011;59019;47.638;18.966;2023-03-03T18:49:51;39.55;;;18.58;;
71253;SDS011;59019;47.638;18.966;2023-03-03T18:52:17;42.93;;;18.20;;
71253;SDS011;59019;47.638;18.966;2023-03-03T18:55:38;48.03;;;20.98;;
71253;SDS011;59019;47.638;18.966;2023-03-03T18:57:33;46.85;;;20.92;;
71253;SDS011;59019;47.638;18.966;2023-03-03T19:02:54;41.10;;;18.52;;
71253;SDS011;59019;47.638;18.966;2023-03-03T19:05:23;38.47;;;16.73;;
71253;SDS011;59019;47.638;18.966;2023-03-03T19:16:43;40.88;;;18.35;;
71253;SDS011;59019;47.638;18.966;2023-03-03T19:21:29;41.88;;;18.17;;
71253;SDS011;59019;47.638;18.966;2023-03-03T19:23:58;40.20;;;16.15;;
71253;SDS011;59019;47.638;18.966;2023-03-03T19:26:36;44.85;;;18.83;;
71253;SDS011;59019;47.638;18.966;2023-03-03T19:32:03;45.77;;;19.87;;
71253;SDS011;59019;47.638;18.966;2023-03-03T19:34:59;51.10;;;21.60;;
71253;SDS011;59019;47.638;18.966;2023-03-03T19:40:36;47.75;;;18.77;;
71253;SDS011;59019;47.638;18.966;2023-03-03T19:43:26;42.58;;;18.80;;
71253;SDS011;59019;47.638;18.966;2023-03-03T19:49:31;46.13;;;19.15;;
71253;SDS011;59019;47.638;18.966;2023-03-03T20:03:47;42.90;;;17.83;;
71253;SDS011;59019;47.638;18.966;2023-03-03T20:06:50;40.63;;;17.92;;
71253;SDS011;59019;47.638;18.966;2023-03-03T20:14:41;38.35;;;15.02;;
71253;SDS011;59019;47.638;18.966;2023-03-03T20:23:03;36.65;;;14.23;;
71253;SDS011;59019;47.638;18.966;2023-03-03T20:25:45;39.10;;;16.48;;
71253;SDS011;59019;47.638;18.966;2023-03-03T20:28:25;32.45;;;12.95;;
71253;SDS011;59019;47.638;18.966;2023-03-03T20:31:02;34.20;;;13.68;;
71253;SDS011;59019;47.638;18.966;2023-03-03T20:39:02;31.95;;;15.13;;
71253;SDS011;59019;47.638;18.966;2023-03-03T20:44:02;31.60;;;14.83;;
71253;SDS011;59019;47.638;18.966;2023-03-03T20:46:48;30.92;;;13.82;;
71253;SDS011;59019;47.638;18.966;2023-03-03T20:49:39;29.45;;;11.73;;
71253;SDS011;59019;47.638;18.966;2023-03-03T20:58:05;31.63;;;12.47;;
71253;SDS011;59019;47.638;18.966;2023-03-03T21:08:45;30.02;;;13.18;;
71253;SDS011;59019;47.638;18.966;2023-03-03T21:11:40;25.63;;;10.90;;
71253;SDS011;59019;47.638;18.966;2023-03-03T21:14:19;33.83;;;15.95;;
71253;SDS011;59019;47.638;18.966;2023-03-03T21:16:53;33.10;;;13.70;;
71253;SDS011;59019;47.638;18.966;2023-03-03T21:21:56;25.52;;;11.40;;
71253;SDS011;59019;47.638;18.966;2023-03-03T21:24:24;29.00;;;12.07;;
71253;SDS011;59019;47.638;18.966;2023-03-03T21:27:22;24.15;;;10.45;;
71253;SDS011;59019;47.638;18.966;2023-03-03T21:30:19;36.95;;;15.98;;
71253;SDS011;59019;47.638;18.966;2023-03-03T21:32:47;33.72;;;13.70;;
71253;SDS011;59019;47.638;18.966;2023-03-03T21:35:17;26.05;;;11.40;;
71253;SDS011;59019;47.638;18.966;2023-03-03T21:37:52;39.17;;;16.73;;
71253;SDS011;59019;47.638;18.966;2023-03-03T21:40:24;31.65;;;14.90;;
71253;SDS011;59019;47.638;18.966;2023-03-03T21:42:52;29.30;;;12.27;;
71253;SDS011;59019;47.638;18.966;2023-03-03T21:45:20;25.25;;;12.23;;
71253;SDS011;59019;47.638;18.966;2023-03-03T21:47:46;35.70;;;14.73;;
71253;SDS011;59019;47.638;18.966;2023-03-03T21:50:14;24.38;;;10.57;;
71253;SDS011;59019;47.638;18.966;2023-03-03T21:52:40;34.65;;;13.20;;
71253;SDS011;59019;47.638;18.966;2023-03-03T21:55:05;30.15;;;11.10;;
71253;SDS011;59019;47.638;18.966;2023-03-03T21:57:31;22.70;;;9.93;;
71253;SDS011;59019;47.638;18.966;2023-03-03T21:59:59;40.42;;;14.48;;
71253;SDS011;59019;47.638;18.966;2023-03-03T22:02:25;36.50;;;14.82;;
71253;SDS011;59019;47.638;18.966;2023-03-03T22:04:51;23.87;;;9.97;;
71253;SDS011;59019;47.638;18.966;2023-03-03T22:07:16;30.38;;;12.57;;
71253;SDS011;59019;47.638;18.966;2023-03-03T22:09:42;24.70;;;10.23;;
71253;SDS011;59019;47.638;18.966;2023-03-03T22:12:07;27.10;;;12.60;;
71253;SDS011;59019;47.638;18.966;2023-03-03T22:14:33;27.60;;;12.20;;
71253;SDS011;59019;47.638;18.966;2023-03-03T22:16:59;27.88;;;14.57;;
71253;SDS011;59019;47.638;18.966;2023-03-03T22:19:24;28.33;;;11.63;;
71253;SDS011;59019;47.638;18.966;2023-03-03T22:21:50;23.70;;;9.30;;
71253;SDS011;59019;47.638;18.966;2023-03-03T22:24:16;24.27;;;9.40;;
71253;SDS011;59019;47.638;18.966;2023-03-03T22:26:42;30.00;;;12.68;;
71253;SDS011;59019;47.638;18.966;2023-03-03T22:29:09;24.92;;;9.68;;